createdAt,value
2018-11-26T00:01:46.071Z,1.00
2018-11-26T00:04:15.343Z,1.00
2018-11-26T00:06:44.596Z,1.00
2018-11-26T00:09:13.872Z,1.00
2018-11-26T00:11:44.167Z,1.00
2018-11-26T00:14:14.599Z,1.00
2018-11-26T00:16:43.882Z,1.00
2018-11-26T00:19:13.123Z,1.00
2018-11-26T00:21:42.364Z,1.00
2018-11-26T00:24:11.678Z,1.00
2018-11-26T00:26:40.922Z,1.00
2018-11-26T00:29:10.131Z,1.00
2018-11-26T00:31:39.388Z,1.00
2018-11-26T00:34:08.629Z,1.00
2018-11-26T00:36:37.836Z,1.00
2018-11-26T00:39:10.474Z,1.00
2018-11-26T00:41:39.697Z,1.00
2018-11-26T00:44:08.940Z,1.00
2018-11-26T00:46:38.195Z,1.00
2018-11-26T00:49:07.469Z,1.00
2018-11-26T00:51:36.701Z,1.00
2018-11-26T00:54:06.257Z,1.00
2018-11-26T00:56:35.504Z,1.00
2018-11-26T00:59:04.803Z,1.00
2018-11-26T01:01:34.031Z,1.00
2018-11-26T01:04:03.320Z,1.00
2018-11-26T01:06:32.552Z,1.00
2018-11-26T01:09:01.771Z,1.00
2018-11-26T01:11:30.996Z,1.00
2018-11-26T01:14:00.255Z,1.00
2018-11-26T01:16:29.523Z,1.00
2018-11-26T01:18:58.826Z,1.00
2018-11-26T01:21:28.112Z,1.00
2018-11-26T01:23:57.333Z,1.00
2018-11-26T01:26:26.567Z,1.00
2018-11-26T01:28:55.781Z,1.00
2018-11-26T01:31:25.020Z,1.00
2018-11-26T01:33:54.223Z,1.00
2018-11-26T01:36:23.491Z,1.00
2018-11-26T01:38:52.701Z,1.00
2018-11-26T01:41:21.933Z,1.00
2018-11-26T01:43:51.177Z,1.00
2018-11-26T01:46:20.388Z,1.00
2018-11-26T01:48:49.612Z,1.00
2018-11-26T01:51:18.883Z,1.00
2018-11-26T01:53:48.161Z,1.00
2018-11-26T01:56:17.439Z,1.00
2018-11-26T01:58:46.663Z,1.00
2018-11-26T02:01:15.892Z,1.00
2018-11-26T02:03:45.142Z,1.00
2018-11-26T02:06:14.414Z,1.00
2018-11-26T02:08:43.639Z,1.00
2018-11-26T02:11:12.936Z,1.00
2018-11-26T02:13:42.176Z,1.00
2018-11-26T02:16:11.416Z,1.00
2018-11-26T02:18:40.702Z,1.00
2018-11-26T02:21:09.950Z,1.00
2018-11-26T02:23:39.227Z,1.00
2018-11-26T02:26:08.468Z,1.00
2018-11-26T02:28:37.708Z,1.00
2018-11-26T02:31:06.936Z,1.00
2018-11-26T02:33:36.324Z,1.00
2018-11-26T02:36:05.979Z,1.00
2018-11-26T02:38:35.199Z,1.00
2018-11-26T02:41:04.456Z,1.00
2018-11-26T02:43:33.677Z,1.00
2018-11-26T02:46:02.913Z,1.00
2018-11-26T02:48:32.149Z,1.00
2018-11-26T02:51:01.412Z,1.00
2018-11-26T02:53:30.656Z,1.00
2018-11-26T02:55:59.883Z,1.00
2018-11-26T02:58:29.100Z,1.00
2018-11-26T03:00:58.328Z,1.00
2018-11-26T03:03:27.573Z,1.00
2018-11-26T03:05:56.797Z,1.00
2018-11-26T03:08:26.056Z,1.00
2018-11-26T03:10:55.280Z,1.00
2018-11-26T03:13:24.516Z,1.00
2018-11-26T03:15:53.768Z,1.00
2018-11-26T03:18:22.987Z,1.00
2018-11-26T03:20:52.220Z,1.00
2018-11-26T03:23:21.488Z,1.00
2018-11-26T03:25:50.699Z,1.00
2018-11-26T03:28:19.953Z,1.00
2018-11-26T03:30:49.216Z,1.00
2018-11-26T03:33:18.443Z,1.00
2018-11-26T03:35:47.676Z,1.00
2018-11-26T03:38:22.139Z,1.00
2018-11-26T03:40:51.411Z,1.00
2018-11-26T03:43:20.630Z,1.00
2018-11-26T03:45:49.875Z,1.00
2018-11-26T03:48:19.139Z,1.00
2018-11-26T03:50:48.393Z,1.00
2018-11-26T03:53:17.619Z,1.00
2018-11-26T03:55:46.858Z,1.00
2018-11-26T03:58:16.083Z,1.00
2018-11-26T04:00:45.459Z,1.00
2018-11-26T04:03:14.682Z,1.00
2018-11-26T04:05:43.920Z,1.00
2018-11-26T04:08:13.151Z,1.00
2018-11-26T04:10:42.392Z,1.00
2018-11-26T04:13:11.660Z,1.00
2018-11-26T04:15:40.880Z,1.00
2018-11-26T04:18:10.169Z,1.00
2018-11-26T04:20:39.431Z,1.00
2018-11-26T04:23:08.673Z,1.00
2018-11-26T04:25:37.981Z,1.00
2018-11-26T04:28:07.627Z,1.00
2018-11-26T04:30:36.860Z,1.00
2018-11-26T04:33:06.237Z,1.00
2018-11-26T04:35:35.437Z,1.00
2018-11-26T04:38:04.679Z,1.00
2018-11-26T04:40:33.915Z,1.00
2018-11-26T04:43:03.151Z,1.00
2018-11-26T04:45:32.380Z,1.00
2018-11-26T04:48:01.567Z,1.00
2018-11-26T04:50:30.855Z,1.00
2018-11-26T04:53:00.329Z,1.00
2018-11-26T04:55:29.556Z,1.00
2018-11-26T04:57:58.768Z,1.00
2018-11-26T05:00:28.036Z,1.00
2018-11-26T05:02:57.279Z,1.00
2018-11-26T05:05:26.536Z,1.00
2018-11-26T05:07:55.776Z,1.00
2018-11-26T05:10:25.000Z,1.00
2018-11-26T05:12:54.261Z,1.00
2018-11-26T05:15:23.507Z,1.00
2018-11-26T05:17:52.731Z,1.00
2018-11-26T05:20:22.013Z,1.00
2018-11-26T05:22:51.244Z,1.00
2018-11-26T05:25:20.484Z,1.00
2018-11-26T05:27:49.685Z,1.00
2018-11-26T05:30:19.614Z,1.00
2018-11-26T05:32:48.946Z,1.00
2018-11-26T05:35:18.181Z,1.00
2018-11-26T05:37:47.424Z,1.00
2018-11-26T05:40:16.664Z,1.00
2018-11-26T05:42:45.920Z,1.00
2018-11-26T05:45:16.226Z,1.00
2018-11-26T05:47:45.428Z,4.60
2018-11-26T05:50:15.471Z,3.50
2018-11-26T05:52:44.732Z,1.00
2018-11-26T05:55:16.004Z,1.00
2018-11-26T05:57:46.365Z,1.00
2018-11-26T06:00:27.247Z,1.00
2018-11-26T06:02:56.488Z,1.00
2018-11-26T06:05:25.862Z,1.00
2018-11-26T06:07:55.143Z,1.00
2018-11-26T06:10:24.398Z,1.00
2018-11-26T06:12:53.667Z,1.00
2018-11-26T06:15:22.963Z,1.00
2018-11-26T06:17:52.185Z,4.10
2018-11-26T06:20:21.488Z,1.00
2018-11-26T06:22:50.750Z,1.00
2018-11-26T06:25:21.481Z,1.00
2018-11-26T06:27:50.711Z,1.00
2018-11-26T06:30:20.342Z,1.00
2018-11-26T06:32:49.579Z,1.00
2018-11-26T06:35:21.238Z,1.00
2018-11-26T06:37:50.615Z,1.00
2018-11-26T06:40:19.862Z,1.00
2018-11-26T06:42:49.098Z,1.00
2018-11-26T06:45:21.566Z,1.00
2018-11-26T06:47:50.874Z,1.00
2018-11-26T06:50:20.932Z,1.00
2018-11-26T06:52:50.231Z,1.00
2018-11-26T06:55:20.525Z,1.00
2018-11-26T06:57:49.771Z,1.00
2018-11-26T07:00:20.170Z,1.00
2018-11-26T07:02:49.486Z,1.00
2018-11-26T07:05:19.865Z,1.00
2018-11-26T07:07:49.205Z,1.00
2018-11-26T07:10:19.325Z,1.00
2018-11-26T07:12:48.577Z,1.00
2018-11-26T07:15:20.286Z,1.00
2018-11-26T07:17:49.745Z,1.00
2018-11-26T07:20:19.908Z,1.00
2018-11-26T07:22:49.162Z,1.00
2018-11-26T07:25:19.815Z,1.00
2018-11-26T07:27:51.478Z,1.00
2018-11-26T07:30:23.947Z,1.00
2018-11-26T07:32:53.217Z,1.00
2018-11-26T07:35:22.551Z,1.00
2018-11-26T07:37:51.770Z,1.00
2018-11-26T07:40:22.945Z,1.00
2018-11-26T07:42:56.543Z,1.00
2018-11-26T07:45:25.808Z,1.00
2018-11-26T07:47:55.171Z,1.00
2018-11-26T07:50:24.430Z,1.00
2018-11-26T07:52:53.638Z,1.00
2018-11-26T07:55:23.077Z,1.00
2018-11-26T07:57:52.374Z,1.00
2018-11-26T08:00:22.377Z,1.00
2018-11-26T08:02:51.856Z,1.00
2018-11-26T08:05:22.086Z,1.00
2018-11-26T08:07:51.427Z,1.00
2018-11-26T08:10:21.937Z,1.00
2018-11-26T08:12:53.237Z,1.00
2018-11-26T08:15:24.600Z,1.00
2018-11-26T08:17:53.874Z,1.00
2018-11-26T08:20:23.164Z,1.00
2018-11-26T08:22:52.468Z,1.00
2018-11-26T08:25:22.824Z,1.00
2018-11-26T08:27:52.356Z,1.00
2018-11-26T08:30:23.751Z,1.00
2018-11-26T08:32:57.076Z,1.00
2018-11-26T08:35:26.460Z,1.00
2018-11-26T08:39:00.892Z,1.00
2018-11-26T08:41:36.128Z,1.00
2018-11-26T08:44:10.996Z,1.00
2018-11-26T08:46:45.609Z,1.00
2018-11-26T08:49:22.820Z,1.00
2018-11-26T08:51:52.112Z,1.00
2018-11-26T08:54:21.554Z,1.00
2018-11-26T08:56:50.876Z,1.00
2018-11-26T08:59:20.127Z,1.00
2018-11-26T09:01:51.059Z,1.00
2018-11-26T09:04:20.732Z,1.00
2018-11-26T09:06:49.964Z,1.00
2018-11-26T09:09:19.256Z,1.00
2018-11-26T09:11:54.989Z,1.00
2018-11-26T09:14:24.235Z,1.00
2018-11-26T09:16:53.500Z,1.00
2018-11-26T09:19:22.912Z,1.00
2018-11-26T09:21:52.149Z,1.00
2018-11-26T09:24:21.426Z,1.00
2018-11-26T09:26:53.611Z,1.00
2018-11-26T09:29:22.943Z,1.00
2018-11-26T09:31:52.197Z,1.00
2018-11-26T09:34:21.413Z,1.00
2018-11-26T09:36:51.425Z,1.00
2018-11-26T09:39:20.655Z,1.00
2018-11-26T09:48:43.947Z,1.00
2018-11-26T09:51:14.320Z,1.00
2018-11-26T09:53:42.449Z,1.00
2018-11-26T09:56:11.786Z,1.00
2018-11-26T09:58:41.060Z,1.00
2018-11-26T10:01:10.424Z,1.00
2018-11-26T10:03:39.660Z,1.00
2018-11-26T10:06:09.680Z,1.00
2018-11-26T10:08:38.939Z,1.00
2018-11-26T10:11:08.188Z,1.00
2018-11-26T10:13:37.415Z,1.00
2018-11-26T10:16:07.283Z,1.00
2018-11-26T10:18:36.531Z,1.00
2018-11-26T10:21:05.840Z,1.00
2018-11-26T10:23:35.064Z,1.00
2018-11-26T10:26:04.372Z,1.00
2018-11-26T10:28:33.733Z,1.00
2018-11-26T10:31:02.963Z,1.00
2018-11-26T10:33:32.209Z,1.00
2018-11-26T10:36:01.477Z,1.00
2018-11-26T10:38:30.713Z,1.00
2018-11-26T10:40:59.947Z,1.00
2018-11-26T10:43:29.216Z,1.00
2018-11-26T10:45:58.588Z,1.00
2018-11-26T10:48:28.246Z,1.00
2018-11-26T10:50:57.541Z,1.00
2018-11-26T10:53:26.788Z,1.00
2018-11-26T10:55:56.184Z,1.00
2018-11-26T10:58:25.503Z,1.00
2018-11-26T11:01:01.775Z,1.00
2018-11-26T11:03:31.034Z,1.00
2018-11-26T11:06:00.427Z,1.00
2018-11-26T11:08:29.684Z,1.00
2018-11-26T11:10:58.968Z,1.00
2018-11-26T11:13:28.259Z,1.00
2018-11-26T11:15:57.489Z,1.00
2018-11-26T11:18:26.774Z,1.00
2018-11-26T11:20:56.063Z,1.00
2018-11-26T11:23:25.310Z,1.00
2018-11-26T11:25:54.728Z,1.00
2018-11-26T11:28:23.994Z,1.00
2018-11-26T11:30:53.404Z,1.00
2018-11-26T11:35:51.977Z,1.00
2018-11-26T11:38:21.232Z,1.00
2018-11-26T11:40:50.454Z,1.00
2018-11-26T11:43:19.673Z,1.00
2018-11-26T11:45:48.892Z,1.00
2018-11-26T11:48:18.202Z,1.00
2018-11-26T11:50:47.430Z,1.00
2018-11-26T11:53:16.723Z,1.00
2018-11-26T11:55:45.994Z,1.00
2018-11-26T11:58:15.210Z,1.00
2018-11-26T12:00:46.145Z,1.00
2018-11-26T12:03:19.690Z,1.00
2018-11-26T12:05:49.008Z,1.00
2018-11-26T12:08:18.250Z,1.00
2018-11-26T12:10:47.490Z,1.00
2018-11-26T12:13:16.730Z,1.00
2018-11-26T12:15:50.551Z,1.00
2018-11-26T12:18:19.796Z,1.00
2018-11-26T12:20:49.043Z,1.00
2018-11-26T12:23:18.297Z,1.00
2018-11-26T12:25:47.551Z,1.00
2018-11-26T12:28:16.785Z,1.00
2018-11-26T12:30:46.668Z,1.00
2018-11-26T12:33:15.937Z,1.00
2018-11-26T12:35:45.141Z,1.00
2018-11-26T12:38:14.390Z,1.00
2018-11-26T12:40:43.649Z,1.00
2018-11-26T12:43:12.935Z,1.00
2018-11-26T12:45:42.181Z,1.00
2018-11-26T12:48:11.434Z,1.00
2018-11-26T12:50:40.693Z,1.00
2018-11-26T12:53:10.184Z,1.00
2018-11-26T12:55:39.405Z,1.00
2018-11-26T12:58:08.675Z,1.00
2018-11-26T13:00:38.368Z,1.00
2018-11-26T13:03:09.293Z,1.00
2018-11-26T13:05:38.533Z,1.00
2018-11-26T13:08:08.394Z,1.00
2018-11-26T13:10:38.496Z,1.00
2018-11-26T13:13:09.036Z,1.00
2018-11-26T13:15:38.317Z,1.00
2018-11-26T13:18:07.821Z,1.00
2018-11-26T13:20:37.130Z,1.00
2018-11-26T13:23:07.777Z,1.00
2018-11-26T13:25:41.722Z,1.00
2018-11-26T13:28:08.296Z,1.00
2018-11-26T13:30:39.988Z,1.00
2018-11-26T13:33:13.516Z,1.00
2018-11-26T13:35:42.950Z,1.00
2018-11-26T13:38:12.370Z,1.00
2018-11-26T13:40:41.602Z,1.00
2018-11-26T13:43:13.330Z,1.00
2018-11-26T13:45:43.977Z,1.00
2018-11-26T13:48:15.754Z,1.00
2018-11-26T13:50:47.957Z,1.00
2018-11-26T13:53:17.249Z,1.00
2018-11-26T13:55:46.492Z,1.00
2018-11-26T13:58:15.758Z,1.00
2018-11-26T14:00:45.038Z,1.00
2018-11-26T14:03:14.292Z,1.00
2018-11-26T14:05:43.594Z,1.00
2018-11-26T14:08:12.837Z,1.00
2018-11-26T14:10:42.085Z,1.00
2018-11-26T14:13:15.289Z,1.00
2018-11-26T14:15:44.581Z,1.00
2018-11-26T14:18:13.840Z,1.00
2018-11-26T14:20:43.093Z,1.00
2018-11-26T14:23:12.506Z,1.00
2018-11-26T14:25:41.733Z,1.00
2018-11-26T14:28:10.996Z,1.00
2018-11-26T14:30:40.494Z,1.00
2018-11-26T14:33:10.355Z,1.00
2018-11-26T14:35:39.426Z,1.00
2018-11-26T14:38:09.560Z,1.00
2018-11-26T14:40:42.464Z,1.00
2018-11-26T14:43:11.783Z,1.00
2018-11-26T14:45:41.046Z,1.00
2018-11-26T14:48:10.282Z,1.00
2018-11-26T14:50:39.570Z,1.00
2018-11-26T14:53:10.561Z,1.00
2018-11-26T14:55:39.873Z,1.00
2018-11-26T14:58:09.126Z,1.00
2018-11-26T15:00:38.421Z,1.00
2018-11-26T15:03:08.144Z,1.00
2018-11-26T15:05:37.421Z,1.00
2018-11-26T15:08:06.685Z,1.00
2018-11-26T15:10:35.946Z,1.00
2018-11-26T15:13:06.265Z,1.00
2018-11-26T15:15:35.646Z,1.00
2018-11-26T15:18:04.961Z,1.00
2018-11-26T15:20:34.320Z,1.00
2018-11-26T15:23:03.557Z,1.00
2018-11-26T15:25:33.782Z,1.00
2018-11-26T15:28:09.951Z,1.00
2018-11-26T15:30:39.210Z,1.00
2018-11-26T15:33:08.802Z,1.00
2018-11-26T15:35:38.078Z,1.00
2018-11-26T15:38:07.622Z,1.00
2018-11-26T15:40:36.889Z,1.00
2018-11-26T15:43:06.958Z,1.00
2018-11-26T15:45:36.678Z,1.00
2018-11-26T15:48:09.756Z,1.00
2018-11-26T15:50:39.080Z,1.00
2018-11-26T15:53:09.405Z,1.00
2018-11-26T15:55:38.734Z,1.00
2018-11-26T15:58:08.989Z,1.00
2018-11-26T16:00:38.282Z,1.00
2018-11-26T16:03:07.715Z,1.00
2018-11-26T16:05:37.048Z,1.00
2018-11-26T16:08:09.936Z,1.00
2018-11-26T16:10:39.177Z,1.00
2018-11-26T16:13:09.633Z,1.00
2018-11-26T16:15:42.064Z,1.00
2018-11-26T16:18:13.578Z,1.00
2018-11-26T16:20:42.398Z,1.00
2018-11-26T16:23:11.835Z,1.00
2018-11-26T16:25:42.492Z,1.00
2018-11-26T16:28:13.556Z,1.00
2018-11-26T16:30:42.837Z,1.00
2018-11-26T16:33:12.776Z,1.00
2018-11-26T16:35:42.136Z,1.00
2018-11-26T16:38:11.749Z,1.00
2018-11-26T16:40:40.979Z,1.00
2018-11-26T16:43:10.446Z,1.00
2018-11-26T16:45:39.731Z,1.00
2018-11-26T16:48:09.003Z,1.00
2018-11-26T16:50:38.367Z,1.00
2018-11-26T16:53:07.957Z,1.00
2018-11-26T16:55:37.213Z,1.00
2018-11-26T16:58:06.494Z,1.00
2018-11-26T17:00:35.794Z,1.00
2018-11-26T17:03:05.301Z,1.00
2018-11-26T17:05:39.053Z,1.00
2018-11-26T17:08:10.722Z,1.00
2018-11-26T17:10:40.208Z,1.00
2018-11-26T17:13:10.272Z,1.00
2018-11-26T17:15:39.581Z,1.00
2018-11-26T17:18:08.963Z,1.00
2018-11-26T17:20:38.574Z,1.00
2018-11-26T17:23:08.072Z,1.00
2018-11-26T17:25:37.336Z,1.00
2018-11-26T17:28:07.014Z,1.00
2018-11-26T17:30:37.355Z,1.00
2018-11-26T17:33:08.603Z,1.00
2018-11-26T17:35:37.866Z,1.00
2018-11-26T17:38:07.357Z,1.00
2018-11-26T17:40:37.429Z,1.00
2018-11-26T17:43:07.650Z,1.00
2018-11-26T17:45:36.951Z,1.00
2018-11-26T17:48:06.920Z,1.00
2018-11-26T17:50:38.993Z,1.00
2018-11-26T17:53:12.045Z,1.00
2018-11-26T17:55:46.362Z,9.10
2018-11-26T17:58:15.676Z,1.00
2018-11-26T18:00:46.901Z,1.00
2018-11-26T18:03:16.237Z,4.00
2018-11-26T18:05:45.497Z,4.50
2018-11-26T18:08:16.855Z,1.80
2018-11-26T18:10:46.155Z,1.00
2018-11-26T18:13:15.446Z,1.50
2018-11-26T18:15:44.779Z,1.70
2018-11-26T18:18:15.700Z,1.00
2018-11-26T18:20:45.359Z,3.60
2018-11-26T18:23:14.688Z,3.80
2018-11-26T18:25:44.420Z,1.00
2018-11-26T18:28:15.137Z,2.90
2018-11-26T18:30:47.613Z,7.10
2018-11-26T18:33:17.035Z,11.40
2018-11-26T18:35:47.140Z,16.00
2018-11-26T18:38:16.764Z,14.90
2018-11-26T18:40:47.734Z,11.20
2018-11-26T18:43:16.970Z,8.40
2018-11-26T18:45:46.272Z,3.90
2018-11-26T18:48:15.985Z,1.00
2018-11-26T18:50:45.281Z,2.50
2018-11-26T18:53:14.515Z,12.90
2018-11-26T18:55:44.025Z,14.10
2018-11-26T18:58:13.380Z,14.70
2018-11-26T19:00:46.330Z,13.80
2018-11-26T19:03:19.534Z,12.20
2018-11-26T19:05:50.136Z,5.20
2018-11-26T19:08:19.455Z,7.30
2018-11-26T19:10:50.430Z,4.70
2018-11-26T19:13:21.835Z,16.60
2018-11-26T19:15:52.414Z,15.20
2018-11-26T19:18:23.121Z,18.90
2018-11-26T19:20:52.763Z,1.00
2018-11-26T19:23:22.403Z,7.90
2018-11-26T19:25:52.667Z,13.90
2018-11-26T19:28:21.969Z,15.90
2018-11-26T19:30:51.262Z,14.00
2018-11-26T19:33:20.538Z,9.70
2018-11-26T19:35:49.752Z,14.30
2018-11-26T19:38:19.142Z,13.20
2018-11-26T19:40:48.374Z,14.30
2018-11-26T19:43:17.666Z,15.90
2018-11-26T19:45:46.896Z,1.00
2018-11-26T19:48:16.166Z,4.70
2018-11-26T19:50:45.448Z,6.70
2018-11-26T19:53:14.734Z,13.20
2018-11-26T19:55:44.118Z,9.00
2018-11-26T19:58:13.337Z,7.50
2018-11-26T20:00:42.602Z,2.20
2018-11-26T20:03:21.338Z,1.00
2018-11-26T20:05:55.868Z,4.00
2018-11-26T20:08:25.171Z,11.40
2018-11-26T20:10:54.491Z,17.60
2018-11-26T20:13:23.838Z,11.50
2018-11-26T20:15:53.704Z,15.60
2018-11-26T20:18:28.335Z,14.60
2018-11-26T20:20:52.265Z,8.70
2018-11-26T20:23:21.744Z,4.10
2018-11-26T20:25:52.170Z,1.00
2018-11-26T20:28:20.225Z,1.00
2018-11-26T20:30:49.480Z,1.00
2018-11-26T20:33:18.749Z,1.00
2018-11-26T20:35:48.022Z,3.90
2018-11-26T20:38:17.400Z,4.90
2018-11-26T20:40:46.677Z,1.00
2018-11-26T20:43:16.203Z,1.00
2018-11-26T20:45:47.459Z,1.00
2018-11-26T20:48:16.912Z,1.00
2018-11-26T20:50:48.346Z,1.00
2018-11-26T20:53:18.160Z,1.00
2018-11-26T20:55:47.504Z,1.00
2018-11-26T20:58:16.825Z,1.00
2018-11-26T21:00:46.941Z,1.00
2018-11-26T21:03:16.182Z,3.80
2018-11-26T21:05:45.479Z,4.20
2018-11-26T21:08:14.891Z,1.00
2018-11-26T21:10:44.164Z,4.00
2018-11-26T21:13:16.897Z,11.30
2018-11-26T21:15:42.796Z,12.50
2018-11-26T21:18:13.051Z,17.40
2018-11-26T21:20:44.083Z,9.60
2018-11-26T21:23:16.064Z,11.20
2018-11-26T21:25:45.355Z,3.80
2018-11-26T21:28:14.784Z,8.50
2018-11-26T21:30:44.067Z,9.50
2018-11-26T21:33:13.327Z,10.00
2018-11-26T21:35:42.628Z,7.90
2018-11-26T21:38:12.513Z,3.70
2018-11-26T21:40:41.889Z,1.00
2018-11-26T21:43:11.920Z,1.00
2018-11-26T21:45:45.917Z,2.10
2018-11-26T21:48:15.166Z,3.80
2018-11-26T21:50:44.523Z,1.00
2018-11-26T21:53:13.829Z,1.00
2018-11-26T21:55:43.086Z,1.00
2018-11-26T21:58:12.341Z,1.00
2018-11-26T22:00:42.153Z,1.00
2018-11-26T22:03:12.487Z,7.80
2018-11-26T22:05:42.689Z,6.50
2018-11-26T22:08:12.349Z,5.30
2018-11-26T22:10:42.832Z,13.20
2018-11-26T22:13:15.820Z,4.30
2018-11-26T22:15:45.143Z,1.00
2018-11-26T22:18:14.437Z,5.10
2018-11-26T22:20:43.777Z,6.40
2018-11-26T22:23:12.993Z,13.00
2018-11-26T22:25:42.271Z,9.60
2018-11-26T22:28:11.876Z,1.00
2018-11-26T22:30:41.480Z,5.70
2018-11-26T22:33:10.778Z,1.00
2018-11-26T22:35:40.045Z,4.30
2018-11-26T22:38:09.400Z,15.70
2018-11-26T22:40:38.683Z,20.20
2018-11-26T22:43:07.936Z,17.60
2018-11-26T22:45:37.176Z,14.40
2018-11-26T22:48:08.707Z,14.10
2018-11-26T22:50:39.332Z,18.70
2018-11-26T22:53:09.270Z,7.70
2018-11-26T22:55:38.605Z,9.40
2018-11-26T22:58:11.253Z,18.30
2018-11-26T23:00:55.987Z,18.20
2018-11-26T23:03:26.307Z,15.80
2018-11-26T23:05:55.639Z,12.30
2018-11-26T23:08:24.972Z,3.80
2018-11-26T23:10:54.259Z,6.40
2018-11-26T23:13:23.644Z,14.20
2018-11-26T23:15:52.881Z,17.70
2018-11-26T23:18:22.121Z,6.90
2018-11-26T23:20:51.403Z,14.20
2018-11-26T23:23:20.647Z,11.60
2018-11-26T23:25:49.851Z,11.80
2018-11-26T23:28:19.112Z,8.80
2018-11-26T23:30:48.381Z,9.30
2018-11-26T23:33:17.656Z,1.00
2018-11-26T23:35:46.909Z,8.00
2018-11-26T23:38:16.149Z,16.60
2018-11-26T23:40:45.383Z,15.50
2018-11-26T23:43:14.640Z,8.90
2018-11-26T23:45:43.898Z,8.70
2018-11-26T23:48:13.145Z,8.20
2018-11-26T23:50:42.370Z,1.00
2018-11-26T23:53:11.623Z,1.60
2018-11-26T23:55:40.872Z,4.10
2018-11-26T23:58:10.125Z,1.00
